Airfield :







YOU CAN JOIN US ON...

 
LOGIN :

Register | Disclaimer

   EN    FR    IT 

 









Legend :    VFR   Marginal VFR   IFR   Intensive IFR   Very Intensive IFR
Visi :
Ceiling :
>= 8 km
>= 3000ft
5 to 8 km
1000 to 3000 ft
1500m to 5 km
500 to 1000 ft
800 to 1500m
200 to 500 ft
< 800m
< 200 ft
Symbols :   Thunderstorms  Fog  Heavy snow  Heavy precipitations  Wind > 20 kt






- Airport Elevation : 270 ft
- IATA code : YMX


CYMX - Montreal International Mirabel

CURRENT METAR :
  • 060200Z 26004KT 25SM SKC 14/08 A2995 RMK SLP147

EXPIRED METARs :
  • 060100Z 26002KT 25SM SKC 13/08 A2996 RMK SLP148
  • 060000Z 24002KT 25SM FEW250 13/08 A2996 RMK CI2 SLP149

TAF TAF CYMX
Valid from the 06 at 00:00 until the 07 at 00:00 UTC


052340Z 0600/0624 19005KT P6SM FEW250
BECMG 0600/0524 VRB03KT
FM061000 24005KT P6SM SCT160
PROB30 0610/0612 2SM BR FEW003 RMK NXT FCST BY 060600Z
CZUL FIR / North America



MET'MAP, your aeronautical weather chart ! - Copyright ORBIFLY December 2007 - Disclaimer

ORBIFLY MET'MAP TEAM :

Programming & Development : Alexandra Zaïnal
Original concept : Baudouin d'Aumeries
Technical & hardware support : Manuel Goepfert
Assistance : Marc-Olivier Méhu




SOURCES & CREDITS :

   NOAA